createdAt,value
2017-03-04T00:00:36.940Z,72.75
2017-03-04T00:01:38.218Z,73.14
2017-03-04T00:02:39.459Z,72.95
2017-03-04T00:03:40.698Z,72.56
2017-03-04T00:04:41.935Z,72.66
2017-03-04T00:05:43.184Z,72.47
2017-03-04T00:06:44.485Z,72.28
2017-03-04T00:07:45.710Z,72.56
2017-03-04T00:08:46.977Z,72.56
2017-03-04T00:09:48.228Z,72.56
2017-03-04T00:10:49.478Z,72.56
2017-03-04T00:11:50.672Z,72.38
2017-03-04T00:12:51.918Z,72.56
2017-03-04T00:13:53.143Z,72.85
2017-03-04T00:14:54.441Z,72.85
2017-03-04T00:15:55.636Z,72.95
2017-03-04T00:16:56.876Z,72.75
2017-03-04T00:17:58.112Z,72.56
2017-03-04T00:18:59.356Z,73.04
2017-03-04T00:20:00.744Z,73.23
2017-03-04T00:21:01.985Z,73.04
2017-03-04T00:22:03.215Z,73.61
2017-03-04T00:23:04.481Z,73.42
2017-03-04T00:24:05.682Z,73.23
2017-03-04T00:25:06.931Z,73.33
2017-03-04T00:26:08.173Z,73.23
2017-03-04T00:27:09.407Z,73.33
2017-03-04T00:28:10.709Z,73.61
2017-03-04T00:29:12.019Z,73.52
2017-03-04T00:30:13.278Z,73.33
2017-03-04T00:31:14.487Z,73.52
2017-03-04T00:32:15.744Z,73.52
2017-03-04T00:33:17.043Z,73.42
2017-03-04T00:34:18.274Z,73.42
2017-03-04T00:35:19.512Z,73.42
2017-03-04T00:36:20.752Z,73.42
2017-03-04T00:37:21.981Z,73.33
2017-03-04T00:38:23.254Z,73.99
2017-03-04T00:39:24.604Z,73.8
2017-03-04T00:40:25.748Z,73.52
2017-03-04T00:41:27.006Z,73.71
2017-03-04T00:42:28.255Z,73.61
2017-03-04T00:43:29.490Z,73.71
2017-03-04T00:44:30.704Z,73.9
2017-03-04T00:45:31.948Z,73.61
2017-03-04T00:46:33.202Z,73.33
2017-03-04T00:47:34.472Z,73.42
2017-03-04T00:48:35.710Z,73.52
2017-03-04T00:49:36.959Z,73.8
2017-03-04T00:50:38.219Z,73.61
2017-03-04T00:51:39.446Z,73.61
2017-03-04T00:52:40.782Z,73.61
2017-03-04T00:53:42.117Z,73.8
2017-03-04T00:54:43.271Z,73.9
2017-03-04T00:55:44.494Z,73.52
2017-03-04T00:56:45.767Z,73.52
2017-03-04T00:57:47.039Z,73.71
2017-03-04T00:58:48.263Z,73.9
2017-03-04T00:59:49.502Z,73.99
2017-03-04T01:00:50.758Z,73.8
2017-03-04T01:01:51.980Z,73.9
2017-03-04T01:02:53.217Z,73.71
2017-03-04T01:03:54.458Z,73.9
2017-03-04T01:04:55.761Z,73.9
2017-03-04T01:05:57.006Z,73.61
2017-03-04T01:06:58.239Z,74.18
2017-03-04T01:07:59.472Z,73.99
2017-03-04T01:09:00.721Z,74.08
2017-03-04T01:10:01.970Z,74.08
2017-03-04T01:11:03.200Z,73.9
2017-03-04T01:12:04.463Z,73.99
2017-03-04T01:13:05.691Z,73.99
2017-03-04T01:14:07.008Z,74.18
2017-03-04T01:15:08.247Z,73.99
2017-03-04T01:16:09.479Z,74.08
2017-03-04T01:17:10.748Z,74.18
2017-03-04T01:18:11.956Z,74.18
2017-03-04T01:19:13.196Z,74.56
2017-03-04T01:20:14.437Z,74.47
2017-03-04T01:21:15.716Z,74.37
2017-03-04T01:22:16.991Z,74.47
2017-03-04T01:23:18.220Z,74.66
2017-03-04T01:24:19.520Z,74.56
2017-03-04T01:25:20.784Z,74.85
2017-03-04T01:26:22.030Z,74.85
2017-03-04T01:27:23.294Z,74.75
2017-03-04T01:28:24.515Z,74.85
2017-03-04T01:29:25.784Z,74.75
2017-03-04T01:30:27.036Z,75.04
2017-03-04T01:31:28.305Z,75.23
2017-03-04T01:32:29.555Z,75.76
2017-03-04T01:33:30.806Z,75.38
2017-03-04T01:34:32.060Z,75.76
2017-03-04T01:35:33.281Z,76.23
2017-03-04T01:36:34.525Z,76.23
2017-03-04T01:37:35.760Z,76.42
2017-03-04T01:38:37.001Z,76.42
2017-03-04T01:39:38.391Z,76.71
2017-03-04T01:40:39.641Z,76.52
2017-03-04T01:41:40.875Z,76.32
2017-03-04T01:42:42.085Z,77.28
2017-03-04T01:43:43.317Z,77.18
2017-03-04T01:44:44.552Z,77.28
2017-03-04T01:45:45.763Z,76.9
2017-03-04T01:46:47.024Z,77.28
2017-03-04T01:47:48.265Z,77.75
2017-03-04T01:48:49.488Z,77.66
2017-03-04T01:49:50.740Z,77.56
2017-03-04T01:50:51.956Z,78.23
2017-03-04T01:51:53.361Z,77.94
2017-03-04T01:52:54.575Z,77.66
2017-03-04T01:53:55.940Z,78.03
2017-03-04T01:54:57.081Z,78.03
2017-03-04T01:55:58.333Z,78.61
2017-03-04T01:56:59.582Z,78.23
2017-03-04T01:58:00.813Z,78.23
2017-03-04T01:59:02.062Z,78.38
2017-03-04T02:00:03.295Z,78.28
2017-03-04T02:01:04.520Z,78.95
2017-03-04T02:02:05.756Z,78.66
2017-03-04T02:03:06.986Z,79.04
2017-03-04T02:04:08.224Z,79.23
2017-03-04T02:05:09.515Z,78.75
2017-03-04T02:06:10.894Z,79.14
2017-03-04T02:07:12.129Z,79.14
2017-03-04T02:08:13.350Z,79.33
2017-03-04T02:09:14.583Z,79.23
2017-03-04T02:10:15.812Z,78.85
2017-03-04T02:11:17.268Z,79.42
2017-03-04T02:12:18.612Z,79.23
2017-03-04T02:13:19.841Z,79.42
2017-03-04T02:14:21.091Z,79.23
2017-03-04T02:15:22.316Z,79.33
2017-03-04T02:16:23.561Z,79.23
2017-03-04T02:17:24.926Z,79.14
2017-03-04T02:18:26.187Z,78.95
2017-03-04T02:19:27.408Z,79.08
2017-03-04T02:20:28.641Z,79.52
2017-03-04T02:21:29.884Z,79.61
2017-03-04T02:22:31.115Z,79.55
2017-03-04T02:23:32.357Z,79.65
2017-03-04T02:24:33.609Z,79.42
2017-03-04T02:25:34.859Z,79.46
2017-03-04T02:26:36.107Z,79.55
2017-03-04T02:27:37.371Z,79.55
2017-03-04T02:28:38.579Z,79.36
2017-03-04T02:29:39.869Z,79.46
2017-03-04T02:30:41.141Z,79.55
2017-03-04T02:31:42.382Z,79.55
2017-03-04T02:32:43.640Z,79.55
2017-03-04T02:33:44.878Z,79.65
2017-03-04T02:34:46.124Z,79.08
2017-03-04T02:35:47.488Z,79.36
2017-03-04T02:36:48.826Z,78.99
2017-03-04T02:37:50.176Z,78.95
2017-03-04T02:38:51.397Z,79.04
2017-03-04T02:39:52.626Z,79.55
2017-03-04T02:40:53.865Z,79.46
2017-03-04T02:41:55.117Z,79.94
2017-03-04T02:42:56.368Z,79.94
2017-03-04T02:43:57.638Z,80.13
2017-03-04T02:44:58.870Z,79.84
2017-03-04T02:46:00.112Z,79.94
2017-03-04T02:47:01.347Z,80.32
2017-03-04T02:48:02.836Z,80.03
2017-03-04T02:49:04.100Z,80.22
2017-03-04T02:50:05.338Z,79.55
2017-03-04T02:51:06.573Z,79.55
2017-03-04T02:52:07.834Z,79.65
2017-03-04T02:53:09.064Z,79.08
2017-03-04T02:54:10.294Z,79.27
2017-03-04T02:55:11.632Z,78.89
2017-03-04T02:56:12.872Z,79.46
2017-03-04T02:57:14.128Z,78.7
2017-03-04T02:58:15.340Z,78.99
2017-03-04T02:59:16.588Z,78.89
2017-03-04T03:00:17.818Z,78.89
2017-03-04T03:01:19.136Z,78.42
2017-03-04T03:02:20.413Z,78.61
2017-03-04T03:03:21.632Z,78.51
2017-03-04T03:04:22.866Z,78.61
2017-03-04T03:05:24.102Z,78.42
2017-03-04T03:06:25.341Z,78.61
2017-03-04T03:07:26.598Z,78.23
2017-03-04T03:08:27.871Z,78.23
2017-03-04T03:09:29.163Z,78.51
2017-03-04T03:10:30.442Z,77.94
2017-03-04T03:11:31.648Z,78.17
2017-03-04T03:12:33.006Z,78.08
2017-03-04T03:13:34.278Z,77.7
2017-03-04T03:14:35.488Z,77.79
2017-03-04T03:15:36.760Z,77.79
2017-03-04T03:16:37.958Z,77.12
2017-03-04T03:17:39.193Z,77.31
2017-03-04T03:18:40.421Z,77.12
2017-03-04T03:19:41.685Z,77.03
2017-03-04T03:20:42.920Z,77.31
2017-03-04T03:21:44.162Z,76.46
2017-03-04T03:22:45.421Z,76.56
2017-03-04T03:23:46.641Z,76.08
2017-03-04T03:24:47.893Z,76.08
2017-03-04T03:25:49.136Z,76.27
2017-03-04T03:26:50.393Z,76.65
2017-03-04T03:27:51.614Z,75.99
2017-03-04T03:28:52.870Z,75.79
2017-03-04T03:29:54.110Z,75.99
2017-03-04T03:30:55.349Z,75.42
2017-03-04T03:31:56.601Z,75.32
2017-03-04T03:32:57.850Z,75.42
2017-03-04T03:33:59.108Z,75.32
2017-03-04T03:35:00.361Z,75.42
2017-03-04T03:36:01.597Z,75.42
2017-03-04T03:37:02.840Z,75.42
2017-03-04T03:38:04.075Z,75.51
2017-03-04T03:39:05.305Z,75.13
2017-03-04T03:40:06.712Z,75.42
2017-03-04T03:41:07.935Z,75.42
2017-03-04T03:42:09.267Z,75.42
2017-03-04T03:43:10.506Z,75.6
2017-03-04T03:44:11.766Z,75.79
2017-03-04T03:45:13.002Z,75.6
2017-03-04T03:46:14.248Z,75.6
2017-03-04T03:47:15.500Z,75.51
2017-03-04T03:48:16.796Z,75.42
2017-03-04T03:49:18.035Z,75.51
2017-03-04T03:50:19.286Z,75.6
2017-03-04T03:51:20.518Z,75.42
2017-03-04T03:52:21.766Z,75.13
2017-03-04T03:53:23.163Z,75.13
2017-03-04T03:54:24.524Z,75.13
2017-03-04T03:55:25.743Z,75.07
2017-03-04T03:56:26.980Z,75.04
2017-03-04T03:57:28.224Z,75.23
2017-03-04T03:58:29.470Z,75.13
2017-03-04T03:59:30.719Z,75.17
2017-03-04T04:00:32.040Z,75.36
2017-03-04T04:01:33.179Z,75.07
2017-03-04T04:02:34.416Z,74.88
2017-03-04T04:03:35.653Z,74.79
2017-03-04T04:04:36.879Z,74.98
2017-03-04T04:05:38.116Z,74.98
2017-03-04T04:06:39.366Z,74.98
2017-03-04T04:07:40.651Z,75.07
2017-03-04T04:08:41.907Z,75.07
2017-03-04T04:09:43.201Z,75.13
2017-03-04T04:10:44.438Z,75.23
2017-03-04T04:11:45.685Z,74.98
2017-03-04T04:12:46.949Z,74.88
2017-03-04T04:13:48.201Z,74.79
2017-03-04T04:14:49.436Z,74.88
2017-03-04T04:15:50.667Z,74.79
2017-03-04T04:16:51.903Z,74.22
2017-03-04T04:17:53.143Z,74.79
2017-03-04T04:18:54.400Z,74.41
2017-03-04T04:19:55.628Z,74.41
2017-03-04T04:20:56.863Z,74.51
2017-03-04T04:21:58.120Z,74.69
2017-03-04T04:22:59.377Z,74.69
2017-03-04T04:24:00.609Z,74.12
2017-03-04T04:25:01.856Z,73.84
2017-03-04T04:26:03.216Z,73.84
2017-03-04T04:27:04.467Z,74.03
2017-03-04T04:28:05.705Z,73.84
2017-03-04T04:29:06.969Z,73.93
2017-03-04T04:30:08.193Z,73.93
2017-03-04T04:31:09.483Z,74.12
2017-03-04T04:32:10.746Z,74.31
2017-03-04T04:33:11.997Z,74.31
2017-03-04T04:34:13.233Z,74.22
2017-03-04T04:35:14.454Z,74.12
2017-03-04T04:36:15.677Z,74.03
2017-03-04T04:37:16.918Z,74.12
2017-03-04T04:38:18.161Z,73.93
2017-03-04T04:39:19.476Z,73.36
2017-03-04T04:40:20.752Z,73.46
2017-03-04T04:41:21.955Z,73.74
2017-03-04T04:42:23.201Z,73.55
2017-03-04T04:43:24.426Z,73.55
2017-03-04T04:44:25.752Z,73.36
2017-03-04T04:45:27.001Z,73.93
2017-03-04T04:46:28.249Z,73.93
2017-03-04T04:47:29.478Z,73.84
2017-03-04T04:48:30.713Z,73.84
2017-03-04T04:49:31.965Z,73.93
2017-03-04T04:50:33.228Z,73.93
2017-03-04T04:51:34.644Z,73.84
2017-03-04T04:52:35.851Z,74.03
2017-03-04T04:53:37.100Z,73.93
2017-03-04T04:54:38.324Z,73.74
2017-03-04T04:55:39.552Z,74.22
2017-03-04T04:56:40.812Z,74.12
2017-03-04T04:57:42.089Z,74.22
2017-03-04T04:58:43.337Z,74.03
2017-03-04T04:59:44.566Z,74.03
2017-03-04T05:00:45.818Z,74.6
2017-03-04T05:01:47.034Z,74.31
2017-03-04T05:02:48.277Z,74.6
2017-03-04T05:03:49.512Z,74.41
2017-03-04T05:04:50.776Z,74.6
2017-03-04T05:05:52.053Z,74.88
2017-03-04T05:06:53.250Z,74.79
2017-03-04T05:07:54.513Z,74.88
2017-03-04T05:08:55.721Z,74.79
2017-03-04T05:09:57.069Z,74.98
2017-03-04T05:10:58.306Z,75.07
2017-03-04T05:11:59.575Z,74.79
2017-03-04T05:13:00.834Z,74.88
2017-03-04T05:14:02.053Z,75.07
2017-03-04T05:15:03.300Z,74.88
2017-03-04T05:16:04.545Z,74.51
2017-03-04T05:17:05.894Z,75.07
2017-03-04T05:18:07.135Z,75.17
2017-03-04T05:19:08.378Z,74.88
2017-03-04T05:20:09.599Z,74.79
2017-03-04T05:21:10.838Z,74.98
2017-03-04T05:22:12.068Z,75.17
2017-03-04T05:23:13.391Z,75.07
2017-03-04T05:24:14.681Z,74.88
2017-03-04T05:25:15.907Z,74.98
2017-03-04T05:26:17.176Z,74.79
2017-03-04T05:27:18.406Z,74.98
2017-03-04T05:28:19.645Z,75.26
2017-03-04T05:29:20.994Z,75.36
2017-03-04T05:30:22.233Z,75.07
2017-03-04T05:31:23.520Z,75.45
2017-03-04T05:32:24.758Z,75.74
2017-03-04T05:33:25.997Z,75.84
2017-03-04T05:34:27.238Z,75.45
2017-03-04T05:35:28.478Z,75.45
2017-03-04T05:36:29.736Z,75.84
2017-03-04T05:37:31.093Z,76.03
2017-03-04T05:38:32.343Z,76.03
2017-03-04T05:39:33.579Z,75.93
2017-03-04T05:40:34.805Z,76.03
2017-03-04T05:41:36.043Z,75.93
2017-03-04T05:42:37.282Z,75.84
2017-03-04T05:43:38.547Z,75.93
2017-03-04T05:44:39.778Z,75.36
2017-03-04T05:45:41.017Z,75.45
2017-03-04T05:46:42.288Z,75.36
2017-03-04T05:47:43.524Z,75.74
2017-03-04T05:48:44.878Z,75.55
2017-03-04T05:49:46.103Z,75.26
2017-03-04T05:50:47.438Z,75.07
2017-03-04T05:51:48.653Z,75.45
2017-03-04T05:52:49.920Z,74.88
2017-03-04T05:53:51.173Z,74.79
2017-03-04T05:54:52.413Z,74.98
2017-03-04T05:55:53.753Z,75.17
2017-03-04T05:56:55.021Z,74.69
2017-03-04T05:57:56.229Z,74.51
2017-03-04T05:58:57.458Z,74.88
2017-03-04T05:59:58.695Z,74.44
2017-03-04T06:00:59.935Z,74.35
2017-03-04T06:02:01.344Z,74.44
2017-03-04T06:03:02.604Z,74.82
2017-03-04T06:04:03.842Z,74.73
2017-03-04T06:05:05.078Z,73.97
2017-03-04T06:06:06.319Z,74.16
2017-03-04T06:07:07.586Z,74.35
2017-03-04T06:08:08.951Z,74.26
2017-03-04T06:09:10.193Z,74.16
2017-03-04T06:10:11.431Z,74.16
2017-03-04T06:11:12.657Z,73.97
2017-03-04T06:12:13.900Z,73.97
2017-03-04T06:13:15.208Z,74.44
2017-03-04T06:14:16.456Z,74.82
2017-03-04T06:15:17.705Z,74.82
2017-03-04T06:16:19.066Z,74.63
2017-03-04T06:17:20.324Z,74.63
2017-03-04T06:18:21.569Z,74.26
2017-03-04T06:19:22.809Z,74.44
2017-03-04T06:20:24.071Z,73.97
2017-03-04T06:21:25.307Z,73.88
2017-03-04T06:22:26.548Z,74.16
2017-03-04T06:23:27.771Z,74.26
2017-03-04T06:24:29.005Z,74.26
2017-03-04T06:25:30.239Z,73.78
2017-03-04T06:26:31.494Z,73.69
2017-03-04T06:27:32.933Z,74.07
2017-03-04T06:28:34.232Z,74.07
2017-03-04T06:29:35.499Z,74.07
2017-03-04T06:30:36.730Z,73.88
2017-03-04T06:31:37.989Z,73.97
2017-03-04T06:32:39.235Z,73.59
2017-03-04T06:33:40.656Z,73.88
2017-03-04T06:34:41.871Z,73.49
2017-03-04T06:35:43.117Z,73.69
2017-03-04T06:36:44.363Z,73.59
2017-03-04T06:37:45.677Z,73.59
2017-03-04T06:38:46.932Z,73.59
2017-03-04T06:39:48.155Z,73.69
2017-03-04T06:40:49.393Z,73.49
2017-03-04T06:41:50.621Z,73.49
2017-03-04T06:42:51.860Z,73.4
2017-03-04T06:43:53.101Z,73.21
2017-03-04T06:44:54.360Z,73.3
2017-03-04T06:45:55.597Z,73.21
2017-03-04T06:46:56.850Z,73.3
2017-03-04T06:47:58.142Z,73.49
2017-03-04T06:48:59.385Z,73.53
2017-03-04T06:50:00.620Z,72.86
2017-03-04T06:51:01.854Z,72.86
2017-03-04T06:52:03.212Z,73.06
2017-03-04T06:53:04.437Z,73.15
2017-03-04T06:54:05.672Z,72.86
2017-03-04T06:55:06.896Z,72.86
2017-03-04T06:56:08.134Z,72.67
2017-03-04T06:57:09.379Z,72.58
2017-03-04T06:58:10.628Z,72.67
2017-03-04T06:59:11.869Z,72.39
2017-03-04T07:00:13.112Z,72.2
2017-03-04T07:01:14.357Z,72.2
2017-03-04T07:02:15.626Z,72.3
2017-03-04T07:03:16.834Z,71.91
2017-03-04T07:04:18.086Z,72.01
2017-03-04T07:05:19.332Z,72.3
2017-03-04T07:06:20.650Z,72.39
2017-03-04T07:07:21.927Z,72.11
2017-03-04T07:08:23.169Z,71.91
2017-03-04T07:09:24.431Z,72.01
2017-03-04T07:10:25.660Z,72.01
2017-03-04T07:11:26.943Z,71.63
2017-03-04T07:12:28.188Z,71.34
2017-03-04T07:13:29.440Z,71.15
2017-03-04T07:14:30.772Z,71.47
2017-03-04T07:15:31.994Z,71.28
2017-03-04T07:16:33.234Z,71.09
2017-03-04T07:17:34.499Z,70.9
2017-03-04T07:18:35.752Z,70.52
2017-03-04T07:19:37.016Z,70.81
2017-03-04T07:20:38.402Z,70.24
2017-03-04T07:21:39.663Z,70.14
2017-03-04T07:22:41.094Z,70.43
2017-03-04T07:23:42.329Z,69.85
2017-03-04T07:24:43.638Z,69.89
2017-03-04T07:25:44.884Z,69.51
2017-03-04T07:26:46.115Z,69.13
2017-03-04T07:27:47.382Z,69.42
2017-03-04T07:28:48.634Z,68.94
2017-03-04T07:29:50.000Z,68.56
2017-03-04T07:30:51.284Z,68.27
2017-03-04T07:31:52.533Z,68.75
2017-03-04T07:32:53.790Z,68.37
2017-03-04T07:33:55.029Z,68.37
2017-03-04T07:34:56.267Z,67.7
2017-03-04T07:35:57.527Z,67.61
2017-03-04T07:36:58.808Z,67.89
2017-03-04T07:38:00.164Z,68.18
2017-03-04T07:39:01.303Z,67.89
2017-03-04T07:40:02.535Z,67.8
2017-03-04T07:41:03.893Z,67.61
2017-03-04T07:42:05.138Z,67.99
2017-03-04T07:43:06.488Z,67.99
2017-03-04T07:44:07.642Z,67.41
2017-03-04T07:45:08.913Z,67.89
2017-03-04T07:46:10.129Z,67.8
2017-03-04T07:47:11.379Z,67.93
2017-03-04T07:48:12.651Z,67.61
2017-03-04T07:49:13.966Z,67.51
2017-03-04T07:50:15.207Z,67.8
2017-03-04T07:51:16.428Z,67.93
2017-03-04T07:52:17.676Z,67.83
2017-03-04T07:53:18.909Z,67.74
2017-03-04T07:54:20.152Z,67.45
2017-03-04T07:55:21.422Z,67.74
2017-03-04T07:56:22.794Z,67.93
2017-03-04T07:57:24.069Z,67.64
2017-03-04T07:58:25.308Z,66.78
2017-03-04T07:59:26.546Z,66.69
2017-03-04T08:00:27.812Z,66.11
2017-03-04T08:01:29.282Z,65.96
2017-03-04T08:02:30.565Z,66.53
2017-03-04T08:03:31.807Z,65.86
2017-03-04T08:04:33.065Z,65.67
2017-03-04T08:05:34.284Z,65.39
2017-03-04T08:06:35.634Z,64.75
2017-03-04T08:07:36.912Z,64.24
2017-03-04T08:08:38.119Z,64.28
2017-03-04T08:09:39.450Z,64.18
2017-03-04T08:10:40.707Z,63.32
2017-03-04T08:11:41.960Z,63.6
2017-03-04T08:12:43.233Z,62.94
2017-03-04T08:13:44.513Z,62.3
2017-03-04T08:14:45.725Z,61.83
2017-03-04T08:15:46.974Z,61.44
2017-03-04T08:16:48.245Z,60.52
2017-03-04T08:17:49.502Z,60.42
2017-03-04T08:18:50.788Z,60.42
2017-03-04T08:19:52.010Z,59.47
2017-03-04T08:20:53.287Z,59.38
2017-03-04T08:21:54.538Z,59.09
2017-03-04T08:22:55.800Z,59.47
2017-03-04T08:23:57.077Z,59.19
2017-03-04T08:24:58.309Z,58.83
2017-03-04T08:25:59.589Z,58.16
2017-03-04T08:27:00.800Z,57.87
2017-03-04T08:28:02.080Z,56.92
2017-03-04T08:29:03.338Z,56.38
2017-03-04T08:30:04.573Z,56.18
2017-03-04T08:31:05.888Z,55.71
2017-03-04T08:32:07.170Z,55.8
2017-03-04T08:33:08.432Z,56.09
2017-03-04T08:34:09.671Z,55.13
2017-03-04T08:35:10.928Z,55.8
2017-03-04T08:36:12.173Z,55.99
2017-03-04T08:37:13.461Z,56.18
2017-03-04T08:38:14.689Z,55.96
2017-03-04T08:39:15.948Z,56.57
2017-03-04T08:40:17.223Z,56.85
2017-03-04T08:41:18.514Z,56.57
2017-03-04T08:42:19.753Z,56.28
2017-03-04T08:43:21.000Z,56.85
2017-03-04T08:44:22.268Z,56.47
2017-03-04T08:45:23.523Z,56.57
2017-03-04T08:46:24.772Z,57.02
2017-03-04T08:47:26.024Z,57.21
2017-03-04T08:48:27.267Z,57.21
2017-03-04T08:49:28.531Z,57.33
2017-03-04T08:50:29.787Z,57.33
2017-03-04T08:51:31.180Z,57.33
2017-03-04T08:52:32.469Z,57.14
2017-03-04T08:53:33.714Z,57.5
2017-03-04T08:54:34.943Z,57.43
2017-03-04T08:55:36.206Z,57.43
2017-03-04T08:56:37.489Z,57.04
2017-03-04T08:57:38.801Z,56.85
2017-03-04T08:58:39.973Z,56.67
2017-03-04T08:59:41.220Z,56.47
2017-03-04T09:00:42.473Z,56.67
2017-03-04T09:01:43.726Z,56.67
2017-03-04T09:02:44.990Z,56.85
2017-03-04T09:03:46.201Z,57.04
2017-03-04T09:04:47.424Z,56.85
2017-03-04T09:05:48.676Z,56.85
2017-03-04T09:06:49.911Z,56.47
2017-03-04T09:07:51.161Z,55.8
2017-03-04T09:08:52.442Z,55.61
2017-03-04T09:09:53.768Z,55.07
2017-03-04T09:10:55.011Z,54.97
2017-03-04T09:11:56.412Z,54.97
2017-03-04T09:12:57.651Z,55.07
2017-03-04T09:13:58.925Z,54.78
2017-03-04T09:15:00.177Z,55.16
2017-03-04T09:16:01.654Z,54.49
2017-03-04T09:17:02.941Z,54.97
2017-03-04T09:18:04.201Z,54.49
2017-03-04T09:19:05.439Z,54.11
2017-03-04T09:20:06.709Z,53.75
2017-03-04T09:21:08.007Z,54.02
2017-03-04T09:22:09.275Z,53.92
2017-03-04T09:23:10.523Z,54.21
2017-03-04T09:24:11.770Z,54.39
2017-03-04T09:25:13.025Z,54.3
2017-03-04T09:26:14.258Z,53.75
2017-03-04T09:27:15.513Z,54.43
2017-03-04T09:28:16.789Z,54.52
2017-03-04T09:29:17.981Z,53.82
2017-03-04T09:30:19.209Z,53.73
2017-03-04T09:31:20.468Z,54.39
2017-03-04T09:32:21.721Z,54.39
2017-03-04T09:33:22.969Z,54.49
2017-03-04T09:34:24.219Z,54.59
2017-03-04T09:35:25.471Z,54.23
2017-03-04T09:36:26.737Z,54.61
2017-03-04T09:37:27.975Z,54.33
2017-03-04T09:38:29.235Z,53.66
2017-03-04T09:39:30.467Z,53.94
2017-03-04T09:40:31.726Z,53.66
2017-03-04T09:41:33.126Z,53.37
2017-03-04T09:42:34.381Z,53.18
2017-03-04T09:43:35.626Z,52.44
2017-03-04T09:44:36.863Z,52.15
2017-03-04T09:45:38.122Z,52.06
2017-03-04T09:46:39.359Z,51.97
2017-03-04T09:47:40.668Z,52.61
2017-03-04T09:48:41.908Z,53.3
2017-03-04T09:49:43.179Z,52.54
2017-03-04T09:50:44.427Z,52.34
2017-03-04T09:51:45.676Z,51.42
2017-03-04T09:52:46.923Z,51.22
2017-03-04T09:53:48.166Z,51.22
2017-03-04T09:54:49.416Z,50.84
2017-03-04T09:55:50.662Z,50.17
2017-03-04T09:56:51.980Z,50.36
2017-03-04T09:57:53.240Z,51.13
2017-03-04T09:58:54.569Z,50.93
2017-03-04T09:59:55.838Z,50.29
2017-03-04T10:00:57.193Z,49.91
2017-03-04T10:01:58.438Z,49.81
2017-03-04T10:02:59.693Z,50
2017-03-04T10:04:00.940Z,49.24
2017-03-04T10:05:02.231Z,48.78
2017-03-04T10:06:03.488Z,48.97
2017-03-04T10:07:04.761Z,48.69
2017-03-04T10:08:06.002Z,47.73
2017-03-04T10:09:07.251Z,47.85
2017-03-04T10:10:08.500Z,46.79
2017-03-04T10:11:09.756Z,47.27
2017-03-04T10:12:11.076Z,45.83
2017-03-04T10:13:12.329Z,46.22
2017-03-04T10:14:13.606Z,45.93
2017-03-04T10:15:14.851Z,45.45
2017-03-04T10:16:16.107Z,45.57
2017-03-04T10:17:17.345Z,45
2017-03-04T10:18:18.601Z,44.8
2017-03-04T10:19:19.821Z,45
2017-03-04T10:20:21.222Z,44.87
2017-03-04T10:21:22.469Z,45.57
2017-03-04T10:22:23.728Z,45.45
2017-03-04T10:23:24.955Z,45.26
2017-03-04T10:24:26.204Z,45.45
2017-03-04T10:25:27.470Z,45.18
2017-03-04T10:26:28.779Z,44.9
2017-03-04T10:27:30.034Z,45.26
2017-03-04T10:28:31.288Z,46.12
2017-03-04T10:29:32.570Z,46.31
2017-03-04T10:30:33.834Z,46.03
2017-03-04T10:31:35.185Z,46.05
2017-03-04T10:32:36.432Z,45.57
2017-03-04T10:33:37.698Z,45.47
2017-03-04T10:34:38.955Z,45.76
2017-03-04T10:35:40.192Z,44.42
2017-03-04T10:36:41.503Z,44.61
2017-03-04T10:37:42.748Z,45
2017-03-04T10:38:44.037Z,44.44
2017-03-04T10:39:45.329Z,43.87
2017-03-04T10:40:46.589Z,43.1
2017-03-04T10:41:47.838Z,43.1
2017-03-04T10:42:49.132Z,43
2017-03-04T10:43:50.387Z,42.61
2017-03-04T10:44:51.653Z,43.57
2017-03-04T10:45:52.924Z,43.38
2017-03-04T10:46:54.175Z,43.36
2017-03-04T10:47:55.478Z,43.38
2017-03-04T10:48:56.717Z,43.74
2017-03-04T10:49:58.009Z,43.94
2017-03-04T10:50:59.382Z,43.84
2017-03-04T10:52:00.658Z,44.13
2017-03-04T10:53:01.877Z,44.32
2017-03-04T10:54:03.124Z,44.23
2017-03-04T10:55:04.365Z,44.13
2017-03-04T10:56:05.659Z,45.09
2017-03-04T10:57:06.911Z,44.7
2017-03-04T10:58:08.191Z,45
2017-03-04T10:59:09.450Z,45.57
2017-03-04T11:00:10.681Z,45.09
2017-03-04T11:01:11.988Z,44.7
2017-03-04T11:02:13.327Z,44.8
2017-03-04T11:03:14.654Z,44.13
2017-03-04T11:04:15.895Z,44.24
2017-03-04T11:05:17.155Z,43.77
2017-03-04T11:06:18.406Z,43.19
2017-03-04T11:07:19.644Z,43.1
2017-03-04T11:08:21.049Z,43.84
2017-03-04T11:09:22.286Z,44.7
2017-03-04T11:10:23.532Z,44.8
2017-03-04T11:11:24.772Z,44.73
2017-03-04T11:12:26.019Z,44.06
2017-03-04T11:13:27.257Z,44.13
2017-03-04T11:14:28.502Z,44.23
2017-03-04T11:15:29.765Z,45.07
2017-03-04T11:16:31.015Z,46.03
2017-03-04T11:17:32.274Z,46.03
2017-03-04T11:18:33.527Z,45.47
2017-03-04T11:19:34.774Z,45.37
2017-03-04T11:20:36.173Z,45.54
2017-03-04T11:21:37.406Z,45.36
2017-03-04T11:22:38.662Z,45.54
2017-03-04T11:23:39.894Z,45.93
2017-03-04T11:24:41.170Z,45.74
2017-03-04T11:25:42.447Z,45.83
2017-03-04T11:26:43.692Z,46.12
2017-03-04T11:27:45.011Z,45.26
2017-03-04T11:28:46.233Z,45.18
2017-03-04T11:29:47.464Z,45.09
2017-03-04T11:30:48.754Z,44.87
2017-03-04T11:31:49.987Z,44.97
2017-03-04T11:32:51.310Z,45.45
2017-03-04T11:33:52.571Z,44.9
2017-03-04T11:34:53.809Z,44.87
2017-03-04T11:35:55.026Z,45.07
2017-03-04T11:36:56.288Z,45.26
2017-03-04T11:37:57.661Z,46.19
2017-03-04T11:38:58.910Z,46.58
2017-03-04T11:40:00.262Z,47.25
2017-03-04T11:41:01.517Z,46.19
2017-03-04T11:42:02.806Z,46.39
2017-03-04T11:43:04.062Z,46.5
2017-03-04T11:44:05.339Z,46.31
2017-03-04T11:45:06.562Z,46.31
2017-03-04T11:46:07.854Z,46.5
2017-03-04T11:47:09.141Z,46.22
2017-03-04T11:48:10.471Z,46.22
2017-03-04T11:49:11.724Z,46.31
2017-03-04T11:50:12.990Z,46.12
2017-03-04T11:51:14.251Z,46.5
2017-03-04T11:52:15.598Z,46.12
2017-03-04T11:53:17.092Z,46.41
2017-03-04T11:54:18.346Z,46.41
2017-03-04T11:55:19.613Z,46.31
2017-03-04T11:56:20.853Z,46.19
2017-03-04T11:57:22.102Z,46.48
2017-03-04T11:58:23.442Z,46.48
2017-03-04T11:59:24.675Z,46.58
2017-03-04T12:00:25.921Z,46.48
2017-03-04T12:01:27.179Z,46.48
2017-03-04T12:02:28.448Z,47.44
2017-03-04T12:03:29.690Z,47.15
2017-03-04T12:04:31.040Z,47.15
2017-03-04T12:05:32.306Z,47.06
2017-03-04T12:06:33.543Z,47.15
2017-03-04T12:07:34.786Z,46.96
2017-03-04T12:08:36.055Z,47.37
2017-03-04T12:09:37.307Z,47.46
2017-03-04T12:10:38.709Z,47.37
2017-03-04T12:11:39.843Z,47.46
2017-03-04T12:12:41.095Z,47.27
2017-03-04T12:13:42.345Z,46.58
2017-03-04T12:14:43.592Z,47.25
2017-03-04T12:15:44.857Z,47.25
2017-03-04T12:16:46.108Z,47.53
2017-03-04T12:17:47.352Z,47.73
2017-03-04T12:18:48.607Z,48.49
2017-03-04T12:19:49.850Z,48.69
2017-03-04T12:20:51.174Z,48.78
2017-03-04T12:21:52.418Z,48.02
2017-03-04T12:22:53.653Z,48.49
2017-03-04T12:23:55.002Z,48.78
2017-03-04T12:24:56.223Z,48.49
2017-03-04T12:25:57.454Z,48.4
2017-03-04T12:26:58.704Z,47.92
2017-03-04T12:27:59.971Z,47.66
2017-03-04T12:29:01.312Z,47.27
2017-03-04T12:30:02.639Z,47.46
2017-03-04T12:31:03.917Z,46.79
2017-03-04T12:32:05.154Z,46.98
2017-03-04T12:33:06.401Z,46.6
2017-03-04T12:34:07.744Z,46.6
2017-03-04T12:35:09.084Z,46.34
2017-03-04T12:36:10.369Z,45.37
2017-03-04T12:37:11.590Z,44.97
2017-03-04T12:38:12.840Z,45.45
2017-03-04T12:39:14.079Z,45.16
2017-03-04T12:40:15.331Z,45.26
2017-03-04T12:41:16.582Z,44.97
2017-03-04T12:42:17.917Z,44.97
2017-03-04T12:43:19.155Z,44.7
2017-03-04T12:44:20.403Z,44.32
2017-03-04T12:45:21.814Z,44.61
2017-03-04T12:46:23.148Z,44.87
2017-03-04T12:47:24.403Z,44.51
2017-03-04T12:48:25.691Z,44.59
2017-03-04T12:49:26.990Z,44.23
2017-03-04T12:50:28.220Z,44.32
2017-03-04T12:51:29.478Z,44.32
2017-03-04T12:52:30.738Z,44.32
2017-03-04T12:53:32.108Z,44.42
2017-03-04T12:54:33.351Z,44.32
2017-03-04T12:55:34.664Z,43.74
2017-03-04T12:56:35.935Z,43.84
2017-03-04T12:57:37.265Z,43.65
2017-03-04T12:58:38.511Z,43.94
2017-03-04T12:59:39.764Z,44.32
2017-03-04T13:00:41.042Z,44.32
2017-03-04T13:01:42.270Z,44.3
2017-03-04T13:02:43.511Z,44.87
2017-03-04T13:03:44.750Z,45.36
2017-03-04T13:04:46.013Z,45.07
2017-03-04T13:05:47.278Z,45.16
2017-03-04T13:06:48.643Z,45.64
2017-03-04T13:07:49.874Z,45.64
2017-03-04T13:08:51.127Z,45.64
2017-03-04T13:09:52.447Z,45.16
2017-03-04T13:10:53.897Z,44.87
2017-03-04T13:11:55.252Z,45.45